createdAt,value
2018-02-08T00:02:57.335Z,82.04
2018-02-08T00:06:00.631Z,82.51
2018-02-08T00:09:03.912Z,82.06
2018-02-08T00:12:07.182Z,81.84
2018-02-08T00:15:10.494Z,81.80
2018-02-08T00:18:14.543Z,81.65
2018-02-08T00:21:17.808Z,81.50
2018-02-08T00:24:21.088Z,81.90
2018-02-08T00:27:24.364Z,81.46
2018-02-08T00:30:27.644Z,81.35
2018-02-08T00:33:30.932Z,81.02
2018-02-08T00:36:34.200Z,81.73
2018-02-08T00:39:37.475Z,81.92
2018-02-08T00:42:41.524Z,81.59
2018-02-08T00:45:44.809Z,81.81
2018-02-08T00:48:48.851Z,81.93
2018-02-08T00:51:52.130Z,81.58
2018-02-08T00:54:55.420Z,81.78
2018-02-08T00:57:58.744Z,81.29
2018-02-08T01:01:01.983Z,81.63
2018-02-08T01:04:05.266Z,81.69
2018-02-08T01:07:08.549Z,82.00
2018-02-08T01:10:11.833Z,81.59
2018-02-08T01:13:15.128Z,81.40
2018-02-08T01:16:18.408Z,81.40
2018-02-08T01:19:21.728Z,81.73
2018-02-08T01:22:24.996Z,82.01
2018-02-08T01:25:28.309Z,82.17
2018-02-08T01:28:32.847Z,81.70
2018-02-08T01:31:39.389Z,81.92
2018-02-08T01:34:42.640Z,81.61
2018-02-08T01:37:45.915Z,81.86
2018-02-08T01:40:49.198Z,82.17
2018-02-08T01:43:52.488Z,82.40
2018-02-08T01:46:55.780Z,82.44
2018-02-08T01:49:59.065Z,82.47
2018-02-08T01:53:04.349Z,82.62
2018-02-08T01:56:07.624Z,82.69
2018-02-08T01:59:10.894Z,82.29
2018-02-08T02:02:15.476Z,82.26
2018-02-08T02:05:18.850Z,81.72
2018-02-08T02:08:22.138Z,82.07
2018-02-08T02:11:25.413Z,82.23
2018-02-08T02:14:29.457Z,82.68
2018-02-08T02:17:32.729Z,82.50
2018-02-08T02:20:36.795Z,82.94
2018-02-08T02:23:40.067Z,82.05
2018-02-08T02:26:43.432Z,81.21
2018-02-08T02:29:47.480Z,80.61
2018-02-08T02:33:00.576Z,80.99
2018-02-08T02:36:03.848Z,80.97
2018-02-08T02:39:07.133Z,80.77
2018-02-08T02:42:10.414Z,81.19
2018-02-08T02:45:13.697Z,81.83
2018-02-08T02:48:16.967Z,82.12
2018-02-08T02:51:21.109Z,81.98
2018-02-08T02:54:24.383Z,82.02
2018-02-08T02:57:28.432Z,82.82
2018-02-08T03:00:31.870Z,82.49
2018-02-08T03:03:35.166Z,82.04
2018-02-08T03:06:38.539Z,82.03
2018-02-08T03:09:41.825Z,81.41
2018-02-08T03:12:45.094Z,80.98
2018-02-08T03:15:49.145Z,81.38
2018-02-08T03:18:52.432Z,81.42
2018-02-08T03:22:03.396Z,81.22
2018-02-08T03:25:07.616Z,81.42
2018-02-08T03:28:10.881Z,81.59
2018-02-08T03:31:14.928Z,81.00
2018-02-08T03:34:18.561Z,80.89
2018-02-08T03:37:21.833Z,80.33
2018-02-08T03:40:25.103Z,80.40
2018-02-08T03:43:29.147Z,80.33
2018-02-08T03:46:32.412Z,80.60
2018-02-08T03:49:36.464Z,80.83
2018-02-08T03:52:39.777Z,80.61
2018-02-08T03:55:43.071Z,80.31
2018-02-08T03:58:46.543Z,80.32
2018-02-08T04:01:50.673Z,80.38
2018-02-08T04:04:53.952Z,81.27
2018-02-08T04:07:57.992Z,82.16
2018-02-08T04:11:01.282Z,82.69
2018-02-08T04:14:05.357Z,83.11
2018-02-08T04:17:08.624Z,83.12
2018-02-08T04:20:11.909Z,83.04
2018-02-08T04:23:15.188Z,82.30
2018-02-08T04:26:18.478Z,81.03
2018-02-08T04:29:22.511Z,80.56
2018-02-08T04:32:25.829Z,80.98
2018-02-08T04:35:29.111Z,81.54
2018-02-08T04:46:16.475Z,81.06
2018-02-08T04:49:19.737Z,81.21
2018-02-08T04:52:23.026Z,81.13
2018-02-08T04:55:26.296Z,80.38
2018-02-08T04:58:29.567Z,80.81
2018-02-08T05:01:32.913Z,80.56
2018-02-08T05:04:36.272Z,80.89
2018-02-08T05:07:39.556Z,81.31
2018-02-08T05:10:42.861Z,80.72
2018-02-08T05:13:46.136Z,80.69
2018-02-08T05:16:50.192Z,80.13
2018-02-08T05:19:53.598Z,80.15
2018-02-08T05:22:56.919Z,80.38
2018-02-08T05:26:00.423Z,79.82
2018-02-08T05:29:03.825Z,80.92
2018-02-08T05:32:07.274Z,81.85
2018-02-08T05:35:10.596Z,82.29
2018-02-08T05:38:13.869Z,82.76
2018-02-08T05:41:17.217Z,82.69
2018-02-08T05:44:20.673Z,82.02
2018-02-08T05:47:23.999Z,82.00
2018-02-08T05:50:27.296Z,81.16
2018-02-08T05:53:30.580Z,81.40
2018-02-08T05:56:33.928Z,80.58
2018-02-08T05:59:37.279Z,80.64
2018-02-08T06:02:40.618Z,80.67
2018-02-08T06:05:43.992Z,80.81
2018-02-08T06:08:48.809Z,81.44
2018-02-08T06:11:52.399Z,81.33
2018-02-08T06:14:55.673Z,81.39
2018-02-08T06:17:59.744Z,80.83
2018-02-08T06:21:03.039Z,81.05
2018-02-08T06:24:06.359Z,81.28
2018-02-08T06:27:09.631Z,81.18
2018-02-08T06:30:13.414Z,80.96
2018-02-08T06:33:16.689Z,81.75
2018-02-08T06:36:20.748Z,80.68
2018-02-08T06:39:24.053Z,80.98
2018-02-08T06:42:27.342Z,81.86
2018-02-08T06:45:30.640Z,82.33
2018-02-08T06:48:33.989Z,82.71
2018-02-08T06:51:37.293Z,82.64
2018-02-08T06:54:40.581Z,82.50
2018-02-08T06:57:44.023Z,82.74
2018-02-08T07:00:47.333Z,82.19
2018-02-08T07:03:50.656Z,81.92
2018-02-08T07:06:53.984Z,81.65
2018-02-08T07:09:58.032Z,81.38
2018-02-08T07:13:01.336Z,81.78
2018-02-08T07:16:04.604Z,82.54
2018-02-08T07:19:08.652Z,82.70
2018-02-08T07:22:11.921Z,82.21
2018-02-08T07:25:15.964Z,81.58
2018-02-08T07:28:19.255Z,81.36
2018-02-08T07:31:22.522Z,80.69
2018-02-08T07:34:26.572Z,80.22
2018-02-08T07:37:29.854Z,80.81
2018-02-08T07:40:33.131Z,80.73
2018-02-08T07:43:37.304Z,80.44
2018-02-08T07:46:40.597Z,81.25
2018-02-08T07:49:45.888Z,82.00
2018-02-08T07:52:49.960Z,81.55
2018-02-08T07:55:53.350Z,81.12
2018-02-08T07:58:56.644Z,80.97
2018-02-08T08:01:59.933Z,80.77
2018-02-08T08:05:03.218Z,79.92
2018-02-08T08:08:07.281Z,79.79
2018-02-08T08:11:10.561Z,80.30
2018-02-08T08:14:13.869Z,80.24
2018-02-08T08:17:17.327Z,79.86
2018-02-08T08:20:21.372Z,80.01
2018-02-08T08:23:24.642Z,79.78
2018-02-08T08:26:28.719Z,80.02
2018-02-08T08:29:32.776Z,79.70
2018-02-08T08:32:36.057Z,78.58
2018-02-08T08:35:40.123Z,78.36
2018-02-08T08:38:43.411Z,78.15
2018-02-08T08:41:46.800Z,77.28
2018-02-08T08:44:50.124Z,76.73
2018-02-08T08:47:53.408Z,77.07
2018-02-08T08:50:56.773Z,77.39
2018-02-08T08:54:00.879Z,77.50
2018-02-08T08:57:05.012Z,78.00
2018-02-08T09:00:08.319Z,78.31
2018-02-08T09:03:11.597Z,78.14
2018-02-08T09:06:16.902Z,77.88
2018-02-08T09:09:20.181Z,77.79
2018-02-08T09:12:23.451Z,77.84
2018-02-08T09:15:26.745Z,77.57
2018-02-08T09:18:30.056Z,77.58
2018-02-08T09:21:33.450Z,76.80
2018-02-08T09:24:36.743Z,77.57
2018-02-08T09:27:40.024Z,77.94
2018-02-08T09:30:43.316Z,77.33
2018-02-08T09:33:47.360Z,76.59
2018-02-08T09:36:50.641Z,74.72
2018-02-08T09:39:53.939Z,74.63
2018-02-08T09:42:57.226Z,73.04
2018-02-08T09:46:00.617Z,74.23
2018-02-08T09:49:04.656Z,75.22
2018-02-08T09:52:07.939Z,74.55
2018-02-08T09:55:11.964Z,72.01
2018-02-08T09:58:15.999Z,71.92
2018-02-08T10:01:19.312Z,74.35
2018-02-08T10:04:22.604Z,73.56
2018-02-08T10:07:25.866Z,73.33
2018-02-08T10:10:29.154Z,74.70
2018-02-08T10:13:33.190Z,74.62
2018-02-08T10:16:36.468Z,73.18
2018-02-08T10:19:40.505Z,74.67
2018-02-08T10:22:43.796Z,75.59
2018-02-08T10:25:47.074Z,74.82
2018-02-08T10:28:51.212Z,73.23
2018-02-08T10:31:54.489Z,73.86
2018-02-08T10:34:58.526Z,75.04
2018-02-08T10:38:01.804Z,73.19
2018-02-08T10:41:05.834Z,72.96
2018-02-08T10:44:09.112Z,72.32
2018-02-08T10:47:13.153Z,73.25
2018-02-08T10:50:16.444Z,72.68
2018-02-08T10:53:19.720Z,73.03
2018-02-08T10:56:23.756Z,72.84
2018-02-08T10:59:27.011Z,72.38
2018-02-08T11:02:30.285Z,69.02
2018-02-08T11:05:33.549Z,71.39
2018-02-08T11:08:36.823Z,72.17
2018-02-08T11:11:40.912Z,72.20
2018-02-08T11:14:44.193Z,71.58
2018-02-08T11:17:47.467Z,71.86
2018-02-08T11:20:50.732Z,71.68
2018-02-08T11:23:54.760Z,72.20
2018-02-08T11:26:58.980Z,72.28
2018-02-08T11:30:03.310Z,72.03
2018-02-08T11:33:06.592Z,71.67
2018-02-08T11:36:10.622Z,71.78
2018-02-08T11:39:13.901Z,72.26
2018-02-08T11:42:18.233Z,72.12
2018-02-08T11:45:21.518Z,69.93
2018-02-08T11:48:25.551Z,70.72
2018-02-08T11:51:28.828Z,70.85
2018-02-08T11:54:32.854Z,70.61
2018-02-08T11:57:37.125Z,70.92
2018-02-08T12:00:40.380Z,71.66
2018-02-08T12:03:43.650Z,71.99
2018-02-08T12:06:46.919Z,71.48
2018-02-08T12:09:50.214Z,70.78
2018-02-08T12:12:53.484Z,70.57
2018-02-08T12:15:56.752Z,71.34
2018-02-08T12:19:00.794Z,72.26
2018-02-08T12:22:04.059Z,71.99
2018-02-08T12:25:08.097Z,71.84
2018-02-08T12:28:11.375Z,71.71
2018-02-08T12:31:15.435Z,71.51
2018-02-08T12:34:18.701Z,71.39
2018-02-08T12:37:21.978Z,72.01
2018-02-08T12:40:26.043Z,71.18
2018-02-08T12:43:29.315Z,70.87
2018-02-08T12:46:32.631Z,70.71
2018-02-08T12:49:35.898Z,71.26
2018-02-08T12:52:39.941Z,72.97
2018-02-08T12:55:43.220Z,71.62
2018-02-08T12:58:46.529Z,71.39
2018-02-08T13:01:49.801Z,71.82
2018-02-08T13:04:53.834Z,71.57
2018-02-08T13:07:57.106Z,73.91
2018-02-08T13:11:01.140Z,73.88
2018-02-08T13:14:04.408Z,74.22
2018-02-08T13:17:08.448Z,73.64
2018-02-08T13:20:11.742Z,73.18
2018-02-08T13:23:15.769Z,73.46
2018-02-08T13:26:19.058Z,73.94
2018-02-08T13:29:22.463Z,73.84
2018-02-08T13:32:25.753Z,74.57
2018-02-08T13:35:29.793Z,73.81
2018-02-08T13:38:33.061Z,73.87
2018-02-08T13:41:37.084Z,72.93
2018-02-08T13:44:40.376Z,71.43
2018-02-08T13:47:50.020Z,69.00
2018-02-08T13:50:54.996Z,67.12
2018-02-08T13:54:03.900Z,70.02
2018-02-08T13:57:15.557Z,71.97
2018-02-08T14:00:36.661Z,73.45
2018-02-08T14:03:39.929Z,73.89
2018-02-08T14:06:43.259Z,72.66
2018-02-08T14:09:46.596Z,71.21
2018-02-08T14:12:49.876Z,71.44
2018-02-08T14:15:53.921Z,72.60
2018-02-08T14:18:57.209Z,73.14
2018-02-08T14:22:00.503Z,73.68
2018-02-08T14:25:04.534Z,73.66
2018-02-08T14:28:07.827Z,74.39
2018-02-08T14:31:11.117Z,74.18
2018-02-08T14:34:14.409Z,74.17
2018-02-08T14:37:18.467Z,74.40
2018-02-08T14:40:21.748Z,74.17
2018-02-08T14:43:25.021Z,74.51
2018-02-08T14:46:28.629Z,74.39
2018-02-08T14:49:32.928Z,74.26
2018-02-08T14:52:36.986Z,75.11
2018-02-08T14:55:40.272Z,74.28
2018-02-08T14:58:43.967Z,74.51
2018-02-08T15:01:48.052Z,73.15
2018-02-08T15:04:52.104Z,74.41
2018-02-08T15:07:55.770Z,73.49
2018-02-08T15:10:59.212Z,73.23
2018-02-08T15:14:02.484Z,73.94
2018-02-08T15:17:06.517Z,73.78
2018-02-08T15:20:09.900Z,73.34
2018-02-08T15:23:13.941Z,74.15
2018-02-08T15:26:17.326Z,74.32
2018-02-08T15:29:21.356Z,74.71
2018-02-08T15:32:24.649Z,73.72
2018-02-08T15:35:27.939Z,73.70
2018-02-08T15:38:31.970Z,72.81
2018-02-08T15:41:35.251Z,74.95
2018-02-08T15:44:39.297Z,74.91
2018-02-08T15:47:42.724Z,75.46
2018-02-08T15:50:46.157Z,76.16
2018-02-08T15:53:50.199Z,76.22
2018-02-08T15:56:53.485Z,76.83
2018-02-08T15:59:56.992Z,76.20
2018-02-08T16:03:00.300Z,76.39
2018-02-08T16:06:03.562Z,76.90
2018-02-08T16:09:07.612Z,77.03
2018-02-08T16:12:10.942Z,77.47
2018-02-08T16:15:14.212Z,77.39
2018-02-08T16:18:17.503Z,77.96
2018-02-08T16:21:20.917Z,77.77
2018-02-08T16:24:24.185Z,77.28
2018-02-08T16:27:27.589Z,77.73
2018-02-08T16:30:30.888Z,78.38
2018-02-08T16:33:34.180Z,78.37
2018-02-08T16:36:37.483Z,79.23
2018-02-08T16:39:40.906Z,79.40
2018-02-08T16:42:44.207Z,78.75
2018-02-08T16:45:48.077Z,78.57
2018-02-08T16:48:51.408Z,78.49
2018-02-08T16:51:54.704Z,78.38
2018-02-08T16:54:57.989Z,78.79
2018-02-08T16:58:01.685Z,78.96
2018-02-08T17:01:04.988Z,78.79
2018-02-08T17:04:08.377Z,78.55
2018-02-08T17:07:11.648Z,78.60
2018-02-08T17:10:14.951Z,78.83
2018-02-08T17:13:18.217Z,78.93
2018-02-08T17:16:21.502Z,78.92
2018-02-08T17:19:24.815Z,79.29
2018-02-08T17:22:28.093Z,79.27
2018-02-08T17:25:31.387Z,79.44
2018-02-08T17:28:34.685Z,79.37
2018-02-08T17:31:37.957Z,79.33
2018-02-08T17:34:41.248Z,79.10
2018-02-08T17:37:44.530Z,78.82
2018-02-08T17:40:48.604Z,78.30
2018-02-08T17:43:51.910Z,78.37
2018-02-08T17:46:55.180Z,78.22
2018-02-08T17:49:58.479Z,78.66
2018-02-08T17:53:01.781Z,78.23
2018-02-08T17:56:05.071Z,78.59
2018-02-08T17:59:08.377Z,78.53
2018-02-08T18:02:11.827Z,78.91
2018-02-08T18:05:15.086Z,78.75
2018-02-08T18:08:18.385Z,78.62
2018-02-08T18:11:21.730Z,79.13
2018-02-08T18:14:25.004Z,79.03
2018-02-08T18:17:28.324Z,79.07
2018-02-08T18:20:32.429Z,79.09
2018-02-08T18:23:36.517Z,79.38
2018-02-08T18:26:39.829Z,79.06
2018-02-08T18:29:43.326Z,79.27
2018-02-08T18:32:46.645Z,79.65
2018-02-08T18:35:49.924Z,79.92
2018-02-08T18:38:53.220Z,79.28
2018-02-08T18:41:57.257Z,79.29
2018-02-08T18:45:00.568Z,79.42
2018-02-08T18:48:04.632Z,79.12
2018-02-08T18:51:07.980Z,79.19
2018-02-08T18:54:11.256Z,79.40
2018-02-08T18:57:14.535Z,78.71
2018-02-08T19:00:17.847Z,78.44
2018-02-08T19:03:21.150Z,78.90
2018-02-08T19:06:24.476Z,79.09
2018-02-08T19:09:28.672Z,79.72
2018-02-08T19:12:31.935Z,79.34
2018-02-08T19:15:35.452Z,79.68
2018-02-08T19:18:38.796Z,79.72
2018-02-08T19:21:42.880Z,79.60
2018-02-08T19:24:46.173Z,79.01
2018-02-08T19:27:49.523Z,78.46
2018-02-08T19:31:06.232Z,78.80
2018-02-08T19:34:10.101Z,78.88
2018-02-08T19:37:13.481Z,78.24
2018-02-08T19:40:19.235Z,78.49
2018-02-08T19:43:31.749Z,77.97
2018-02-08T19:46:40.409Z,78.62
2018-02-08T19:49:45.828Z,78.99
2018-02-08T19:52:58.188Z,79.08
2018-02-08T19:56:03.815Z,78.53
2018-02-08T19:59:08.258Z,78.52
2018-02-08T20:02:16.331Z,78.35
2018-02-08T20:05:21.960Z,78.01
2018-02-08T20:08:27.097Z,78.58
2018-02-08T20:11:30.509Z,78.85
2018-02-08T20:14:34.104Z,78.74
2018-02-08T20:17:38.245Z,79.02
2018-02-08T20:20:41.537Z,79.02
2018-02-08T20:23:44.854Z,78.69
2018-02-08T20:26:48.429Z,78.17
2018-02-08T20:29:51.782Z,77.93
2018-02-08T20:32:55.150Z,78.13
2018-02-08T20:36:00.077Z,78.37
2018-02-08T20:39:03.370Z,78.86
2018-02-08T20:42:06.661Z,78.96
2018-02-08T20:45:09.945Z,78.80
2018-02-08T20:48:14.056Z,78.82
2018-02-08T20:51:19.581Z,78.20
2018-02-08T20:54:22.854Z,77.71
2018-02-08T20:57:26.163Z,77.69
2018-02-08T21:00:29.924Z,77.65
2018-02-08T21:03:33.969Z,79.04
2018-02-08T21:06:37.332Z,78.21
2018-02-08T21:09:41.389Z,78.51
2018-02-08T21:12:44.760Z,78.50
2018-02-08T21:15:48.050Z,78.68
2018-02-08T21:18:52.077Z,78.15
2018-02-08T21:21:55.364Z,78.32
2018-02-08T21:24:58.740Z,77.72
2018-02-08T21:28:02.036Z,78.00
2018-02-08T21:31:05.376Z,77.73
2018-02-08T21:34:08.755Z,77.50
2018-02-08T21:37:12.795Z,78.02
2018-02-08T21:40:16.080Z,77.79
2018-02-08T21:43:19.351Z,78.59
2018-02-08T21:46:22.626Z,77.77
2018-02-08T21:49:25.900Z,77.87
2018-02-08T21:52:29.167Z,77.89
2018-02-08T21:55:32.455Z,78.21
2018-02-08T21:58:36.495Z,78.26
2018-02-08T22:01:39.771Z,78.34
2018-02-08T22:04:43.062Z,78.10
2018-02-08T22:07:46.365Z,78.01
2018-02-08T22:10:50.411Z,77.71
2018-02-08T22:13:53.824Z,77.98
2018-02-08T22:16:57.321Z,77.95
2018-02-08T22:20:01.830Z,77.26
2018-02-08T22:23:05.097Z,77.33
2018-02-08T22:26:09.187Z,77.30
2018-02-08T22:29:12.444Z,77.41
2018-02-08T22:32:15.817Z,77.89
2018-02-08T22:35:19.961Z,78.40
2018-02-08T22:38:23.238Z,78.73
2018-02-08T22:41:26.556Z,78.54
2018-02-08T22:44:29.853Z,78.07
2018-02-08T22:47:33.192Z,77.85
2018-02-08T22:50:36.475Z,77.82
2018-02-08T22:53:39.785Z,78.18
2018-02-08T22:56:43.100Z,78.02
2018-02-08T22:59:46.381Z,78.22
2018-02-08T23:02:49.714Z,78.23
2018-02-08T23:05:53.768Z,78.04
2018-02-08T23:08:57.040Z,78.26
2018-02-08T23:12:00.314Z,78.37
2018-02-08T23:15:03.731Z,78.82
2018-02-08T23:18:07.768Z,79.02
2018-02-08T23:21:11.051Z,78.85
2018-02-08T23:24:14.335Z,78.94
2018-02-08T23:27:18.399Z,79.17
2018-02-08T23:30:21.717Z,79.28
2018-02-08T23:33:25.001Z,79.22
2018-02-08T23:36:29.228Z,79.36
2018-02-08T23:39:32.521Z,79.25
2018-02-08T23:42:35.788Z,79.50
2018-02-08T23:45:39.057Z,79.49
2018-02-08T23:48:43.252Z,79.67
2018-02-08T23:51:46.545Z,79.29
2018-02-08T23:54:49.839Z,78.97
2018-02-08T23:57:53.124Z,78.82
